sensor_id;sensor_type;location;lat;lon;timestamp;pressure;altitude;pressure_sealevel;temperature;humidity
80198;BME280;69517;52.030;7.106;2023-09-19T00:01:05;99804.78;;;23.29;91.50
80198;BME280;69517;52.030;7.106;2023-09-19T00:03:35;99804.91;;;23.27;91.76
80198;BME280;69517;52.030;7.106;2023-09-19T00:06:02;99805.03;;;23.26;91.56
80198;BME280;69517;52.030;7.106;2023-09-19T00:08:29;99813.66;;;23.28;91.53
80198;BME280;69517;52.030;7.106;2023-09-19T00:10:56;99817.25;;;23.27;91.29
80198;BME280;69517;52.030;7.106;2023-09-19T00:13:26;99815.72;;;23.24;91.52
80198;BME280;69517;52.030;7.106;2023-09-19T00:15:53;99821.44;;;23.29;91.37
80198;BME280;69517;52.030;7.106;2023-09-19T00:18:20;99822.25;;;23.30;91.11
80198;BME280;69517;52.030;7.106;2023-09-19T00:20:48;99820.75;;;23.27;91.44
80198;BME280;69517;52.030;7.106;2023-09-19T00:23:16;99826.97;;;23.26;91.22
80198;BME280;69517;52.030;7.106;2023-09-19T00:25:44;99823.25;;;23.29;91.15
80198;BME280;69517;52.030;7.106;2023-09-19T00:28:10;99821.00;;;23.24;91.56
80198;BME280;69517;52.030;7.106;2023-09-19T00:30:36;99831.16;;;23.29;91.44
80198;BME280;69517;52.030;7.106;2023-09-19T00:33:03;99829.47;;;23.28;91.11
80198;BME280;69517;52.030;7.106;2023-09-19T00:35:31;99834.88;;;23.26;91.33
80198;BME280;69517;52.030;7.106;2023-09-19T00:37:59;99826.97;;;23.26;91.23
80198;BME280;69517;52.030;7.106;2023-09-19T00:40:25;99834.75;;;23.28;91.25
80198;BME280;69517;52.030;7.106;2023-09-19T00:42:52;99834.88;;;23.26;91.38
80198;BME280;69517;52.030;7.106;2023-09-19T00:45:24;99835.03;;;23.25;91.62
80198;BME280;69517;52.030;7.106;2023-09-19T00:47:50;99839.19;;;23.27;91.39
80198;BME280;69517;52.030;7.106;2023-09-19T00:50:17;99835.03;;;23.25;91.30
80198;BME280;69517;52.030;7.106;2023-09-19T00:52:44;99845.19;;;23.29;91.12
80198;BME280;69517;52.030;7.106;2023-09-19T00:55:14;99854.31;;;23.25;91.55
80198;BME280;69517;52.030;7.106;2023-09-19T00:57:41;99852.50;;;23.26;91.27
80198;BME280;69517;52.030;7.106;2023-09-19T01:00:09;99847.94;;;23.28;91.20
80198;BME280;69517;52.030;7.106;2023-09-19T01:02:40;99859.72;;;23.24;91.47
80198;BME280;69517;52.030;7.106;2023-09-19T01:05:07;99861.25;;;23.26;90.90
80198;BME280;69517;52.030;7.106;2023-09-19T01:07:34;99866.00;;;23.23;91.63
80198;BME280;69517;52.030;7.106;2023-09-19T01:10:01;99857.91;;;23.24;91.34
80198;BME280;69517;52.030;7.106;2023-09-19T01:12:33;99869.31;;;23.25;91.27
80198;BME280;69517;52.030;7.106;2023-09-19T01:15:06;99863.19;;;23.24;91.15
80198;BME280;69517;52.030;7.106;2023-09-19T01:17:39;99876.53;;;23.23;91.46
80198;BME280;69517;52.030;7.106;2023-09-19T01:20:11;99876.69;;;23.21;91.33
80198;BME280;69517;52.030;7.106;2023-09-19T01:22:43;99871.09;;;23.24;91.43
80198;BME280;69517;52.030;7.106;2023-09-19T01:28:02;99879.19;;;23.23;91.45
80198;BME280;69517;52.030;7.106;2023-09-19T01:30:35;99880.81;;;23.24;91.31
80198;BME280;69517;52.030;7.106;2023-09-19T01:33:05;99872.09;;;23.23;91.11
80198;BME280;69517;52.030;7.106;2023-09-19T01:35:33;99885.13;;;23.25;91.41
80198;BME280;69517;52.030;7.106;2023-09-19T01:38:03;99889.72;;;23.23;91.39
80198;BME280;69517;52.030;7.106;2023-09-19T01:40:30;99892.63;;;23.20;91.41
80198;BME280;69517;52.030;7.106;2023-09-19T01:42:57;99891.66;;;23.21;91.35
80198;BME280;69517;52.030;7.106;2023-09-19T01:45:27;99898.59;;;23.22;91.18
80198;BME280;69517;52.030;7.106;2023-09-19T01:48:02;99890.81;;;23.20;91.54
80198;BME280;69517;52.030;7.106;2023-09-19T01:50:33;99901.91;;;23.24;91.27
80198;BME280;69517;52.030;7.106;2023-09-19T01:53:02;99894.44;;;23.19;91.46
80198;BME280;69517;52.030;7.106;2023-09-19T01:55:30;99901.25;;;23.22;91.46
80198;BME280;69517;52.030;7.106;2023-09-19T01:57:58;99897.78;;;23.21;91.44
80198;BME280;69517;52.030;7.106;2023-09-19T02:00:29;99907.34;;;23.22;90.96
80198;BME280;69517;52.030;7.106;2023-09-19T02:03:00;99892.50;;;23.21;91.22
80198;BME280;69517;52.030;7.106;2023-09-19T02:05:27;99894.28;;;23.21;91.04
80198;BME280;69517;52.030;7.106;2023-09-19T02:07:53;99905.56;;;23.23;91.35
80198;BME280;69517;52.030;7.106;2023-09-19T02:10:20;99892.75;;;23.18;91.28
80198;BME280;69517;52.030;7.106;2023-09-19T02:12:47;99899.56;;;23.21;91.08
80198;BME280;69517;52.030;7.106;2023-09-19T02:15:13;99901.50;;;23.19;91.12
80198;BME280;69517;52.030;7.106;2023-09-19T02:17:40;99906.78;;;23.19;91.27
80198;BME280;69517;52.030;7.106;2023-09-19T02:20:09;99894.44;;;23.19;91.08
80198;BME280;69517;52.030;7.106;2023-09-19T02:22:39;99909.28;;;23.20;91.48
80198;BME280;69517;52.030;7.106;2023-09-19T02:25:06;99908.44;;;23.20;91.10
80198;BME280;69517;52.030;7.106;2023-09-19T02:27:33;99916.22;;;23.21;90.78
80198;BME280;69517;52.030;7.106;2023-09-19T02:29:59;99916.34;;;23.20;91.20
80198;BME280;69517;52.030;7.106;2023-09-19T02:32:29;99916.50;;;23.18;91.15
80198;BME280;69517;52.030;7.106;2023-09-19T02:34:56;99919.28;;;23.17;91.22
80198;BME280;69517;52.030;7.106;2023-09-19T02:37:25;99921.63;;;23.20;91.11
80198;BME280;69517;52.030;7.106;2023-09-19T02:39:51;99927.63;;;23.22;90.85
80198;BME280;69517;52.030;7.106;2023-09-19T02:42:17;99924.13;;;23.21;90.96
80198;BME280;69517;52.030;7.106;2023-09-19T02:44:44;99931.47;;;23.18;91.29
80198;BME280;69517;52.030;7.106;2023-09-19T02:47:12;99925.53;;;23.16;91.36
80198;BME280;69517;52.030;7.106;2023-09-19T02:49:40;99931.34;;;23.19;90.95
80198;BME280;69517;52.030;7.106;2023-09-19T02:52:07;99933.84;;;23.21;90.77
80198;BME280;69517;52.030;7.106;2023-09-19T02:54:35;99928.84;;;23.18;91.24
80198;BME280;69517;52.030;7.106;2023-09-19T02:57:01;99936.75;;;23.18;91.13
80198;BME280;69517;52.030;7.106;2023-09-19T02:59:28;99928.84;;;23.18;91.34
80198;BME280;69517;52.030;7.106;2023-09-19T03:01:55;99929.13;;;23.15;91.49
80198;BME280;69517;52.030;7.106;2023-09-19T03:04:22;99927.75;;;23.20;90.84
80198;BME280;69517;52.030;7.106;2023-09-19T03:06:49;99932.31;;;23.18;91.07
80198;BME280;69517;52.030;7.106;2023-09-19T03:09:16;99936.91;;;23.16;91.13
80198;BME280;69517;52.030;7.106;2023-09-19T03:11:43;99938.72;;;23.16;91.35
80198;BME280;69517;52.030;7.106;2023-09-19T03:14:11;99944.94;;;23.15;91.09
80198;BME280;69517;52.030;7.106;2023-09-19T03:16:40;99949.25;;;23.16;91.52
80198;BME280;69517;52.030;7.106;2023-09-19T03:19:07;99949.13;;;23.17;91.04
80198;BME280;69517;52.030;7.106;2023-09-19T03:21:35;99944.66;;;23.18;90.98
80198;BME280;69517;52.030;7.106;2023-09-19T03:24:02;99944.09;;;23.14;91.40
80198;BME280;69517;52.030;7.106;2023-09-19T03:26:28;99949.13;;;23.17;91.40
80198;BME280;69517;52.030;7.106;2023-09-19T03:28:56;99943.97;;;23.16;91.01
80198;BME280;69517;52.030;7.106;2023-09-19T03:31:22;99951.91;;;23.16;91.18
80198;BME280;69517;52.030;7.106;2023-09-19T03:33:49;99949.13;;;23.17;91.19
80198;BME280;69517;52.030;7.106;2023-09-19T03:36:15;99952.03;;;23.14;91.22
80198;BME280;69517;52.030;7.106;2023-09-19T03:38:41;99957.28;;;23.14;91.29
80198;BME280;69517;52.030;7.106;2023-09-19T03:41:07;99955.63;;;23.13;90.98
80198;BME280;69517;52.030;7.106;2023-09-19T03:43:34;99948.53;;;23.14;91.10
80198;BME280;69517;52.030;7.106;2023-09-19T03:46:02;99947.59;;;23.15;91.09
80198;BME280;69517;52.030;7.106;2023-09-19T03:48:29;99952.56;;;23.18;91.13
80198;BME280;69517;52.030;7.106;2023-09-19T03:50:56;99953.81;;;23.14;91.13
80198;BME280;69517;52.030;7.106;2023-09-19T03:53:22;99951.06;;;23.15;90.94
80198;BME280;69517;52.030;7.106;2023-09-19T03:55:48;99950.22;;;23.15;90.89
80198;BME280;69517;52.030;7.106;2023-09-19T03:58:15;99948.53;;;23.14;91.03
80198;BME280;69517;52.030;7.106;2023-09-19T04:00:41;99958.00;;;23.16;91.03
80198;BME280;69517;52.030;7.106;2023-09-19T04:03:08;99947.47;;;23.16;90.74
80198;BME280;69517;52.030;7.106;2023-09-19T04:05:43;99951.19;;;23.14;91.26
80198;BME280;69517;52.030;7.106;2023-09-19T04:08:10;99952.16;;;23.13;91.26
80198;BME280;69517;52.030;7.106;2023-09-19T04:10:36;99949.38;;;23.14;91.24
80198;BME280;69517;52.030;7.106;2023-09-19T04:13:02;99953.94;;;23.12;91.28
80198;BME280;69517;52.030;7.106;2023-09-19T04:15:29;99963.66;;;23.12;91.34
80198;BME280;69517;52.030;7.106;2023-09-19T04:17:55;99956.47;;;23.14;90.90
80198;BME280;69517;52.030;7.106;2023-09-19T04:20:22;99962.69;;;23.13;91.14
80198;BME280;69517;52.030;7.106;2023-09-19T04:22:49;99959.09;;;23.14;91.07
80198;BME280;69517;52.030;7.106;2023-09-19T04:25:15;99963.41;;;23.15;90.96
80198;BME280;69517;52.030;7.106;2023-09-19T04:27:43;99970.59;;;23.13;91.29
80198;BME280;69517;52.030;7.106;2023-09-19T04:30:10;99971.72;;;23.10;91.01
80198;BME280;69517;52.030;7.106;2023-09-19T04:32:37;99968.13;;;23.11;91.01
80198;BME280;69517;52.030;7.106;2023-09-19T04:35:04;99951.47;;;23.11;91.20
80198;BME280;69517;52.030;7.106;2023-09-19T04:37:34;99947.16;;;23.10;91.06
80198;BME280;69517;52.030;7.106;2023-09-19T04:40:01;99953.94;;;23.12;91.30
80198;BME280;69517;52.030;7.106;2023-09-19T04:42:30;99956.75;;;23.11;91.17
80198;BME280;69517;52.030;7.106;2023-09-19T04:44:56;99971.44;;;23.13;90.89
80198;BME280;69517;52.030;7.106;2023-09-19T04:47:24;99981.31;;;23.11;90.84
80198;BME280;69517;52.030;7.106;2023-09-19T04:49:51;99980.47;;;23.11;90.85
80198;BME280;69517;52.030;7.106;2023-09-19T04:52:17;99990.19;;;23.10;91.08
80198;BME280;69517;52.030;7.106;2023-09-19T04:54:46;99993.06;;;23.07;91.13
80198;BME280;69517;52.030;7.106;2023-09-19T04:57:13;100007.69;;;23.11;90.58
80198;BME280;69517;52.030;7.106;2023-09-19T04:59:40;100001.56;;;23.11;90.91
80198;BME280;69517;52.030;7.106;2023-09-19T05:02:06;100015.00;;;23.08;91.02
80198;BME280;69517;52.030;7.106;2023-09-19T05:04:33;100020.28;;;23.08;90.73
80198;BME280;69517;52.030;7.106;2023-09-19T05:07:00;100026.78;;;23.03;90.33
80198;BME280;69517;52.030;7.106;2023-09-19T05:09:28;100034.28;;;23.08;89.00
80198;BME280;69517;52.030;7.106;2023-09-19T05:11:56;100040.81;;;23.04;89.11
80198;BME280;69517;52.030;7.106;2023-09-19T05:14:23;100037.91;;;23.07;89.89
80198;BME280;69517;52.030;7.106;2023-09-19T05:16:49;100032.50;;;23.09;89.72
80198;BME280;69517;52.030;7.106;2023-09-19T05:19:16;100041.50;;;23.06;89.81
80198;BME280;69517;52.030;7.106;2023-09-19T05:21:42;100038.19;;;23.04;90.00
80198;BME280;69517;52.030;7.106;2023-09-19T05:24:08;100044.13;;;23.06;89.66
80198;BME280;69517;52.030;7.106;2023-09-19T05:26:36;100042.09;;;23.10;89.69
80198;BME280;69517;52.030;7.106;2023-09-19T05:29:03;100040.53;;;23.07;90.08
80198;BME280;69517;52.030;7.106;2023-09-19T05:31:30;100045.56;;;23.10;89.52
80198;BME280;69517;52.030;7.106;2023-09-19T05:33:56;100050.25;;;23.06;89.78
80198;BME280;69517;52.030;7.106;2023-09-19T05:36:24;100038.72;;;23.08;89.87
80198;BME280;69517;52.030;7.106;2023-09-19T05:38:50;100041.38;;;23.08;89.82
80198;BME280;69517;52.030;7.106;2023-09-19T05:41:17;100044.00;;;23.08;89.81
80198;BME280;69517;52.030;7.106;2023-09-19T05:43:44;100049.28;;;23.08;89.89
80198;BME280;69517;52.030;7.106;2023-09-19T05:46:11;100040.41;;;23.09;89.85
80198;BME280;69517;52.030;7.106;2023-09-19T05:48:38;100046.66;;;23.08;89.88
80198;BME280;69517;52.030;7.106;2023-09-19T05:51:04;100033.75;;;23.04;90.05
80198;BME280;69517;52.030;7.106;2023-09-19T05:53:30;100043.16;;;23.07;89.69
80198;BME280;69517;52.030;7.106;2023-09-19T05:55:57;100046.78;;;23.06;89.81
80198;BME280;69517;52.030;7.106;2023-09-19T05:58:26;100043.44;;;23.04;89.88
80198;BME280;69517;52.030;7.106;2023-09-19T06:00:52;100042.56;;;22.94;87.27
80198;BME280;69517;52.030;7.106;2023-09-19T06:03:19;100047.06;;;22.31;81.09
80198;BME280;69517;52.030;7.106;2023-09-19T06:05:46;100063.53;;;21.69;81.37
80198;BME280;69517;52.030;7.106;2023-09-19T06:08:14;100063.72;;;21.12;77.88
80198;BME280;69517;52.030;7.106;2023-09-19T06:10:40;100048.94;;;21.22;77.12
80198;BME280;69517;52.030;7.106;2023-09-19T06:13:06;100051.78;;;21.08;77.01
80198;BME280;69517;52.030;7.106;2023-09-19T06:15:34;100055.72;;;21.14;75.33
80198;BME280;69517;52.030;7.106;2023-09-19T06:18:01;100041.72;;;21.13;75.54
80198;BME280;69517;52.030;7.106;2023-09-19T06:20:31;100041.84;;;20.67;74.62
80198;BME280;69517;52.030;7.106;2023-09-19T06:22:58;100049.16;;;21.19;75.32
80198;BME280;69517;52.030;7.106;2023-09-19T06:25:24;100056.69;;;21.78;73.70
80198;BME280;69517;52.030;7.106;2023-09-19T06:27:51;100057.69;;;22.09;73.17
80198;BME280;69517;52.030;7.106;2023-09-19T06:30:19;100042.66;;;22.20;73.49
80198;BME280;69517;52.030;7.106;2023-09-19T06:32:45;100045.25;;;22.32;73.96
80198;BME280;69517;52.030;7.106;2023-09-19T06:35:12;100037.28;;;22.43;74.66
80198;BME280;69517;52.030;7.106;2023-09-19T06:37:40;100042.72;;;22.51;74.86
80198;BME280;69517;52.030;7.106;2023-09-19T06:40:07;100050.38;;;22.54;75.19
80198;BME280;69517;52.030;7.106;2023-09-19T06:42:38;100059.50;;;22.50;76.10
80198;BME280;69517;52.030;7.106;2023-09-19T06:45:05;100061.03;;;22.52;76.81
80198;BME280;69517;52.030;7.106;2023-09-19T06:47:31;100073.13;;;22.55;76.81
80198;BME280;69517;52.030;7.106;2023-09-19T06:49:58;100075.88;;;22.53;76.85
80198;BME280;69517;52.030;7.106;2023-09-19T06:52:24;100073.56;;;22.60;75.17
80198;BME280;69517;52.030;7.106;2023-09-19T06:54:52;100081.47;;;22.60;74.84
80198;BME280;69517;52.030;7.106;2023-09-19T06:57:18;100075.38;;;22.59;75.66
80198;BME280;69517;52.030;7.106;2023-09-19T06:59:45;100070.94;;;22.60;76.00
80198;BME280;69517;52.030;7.106;2023-09-19T07:02:11;100080.53;;;22.61;76.15
80198;BME280;69517;52.030;7.106;2023-09-19T07:04:38;100087.19;;;22.65;76.23
80198;BME280;69517;52.030;7.106;2023-09-19T07:07:05;100079.28;;;22.65;77.18
80198;BME280;69517;52.030;7.106;2023-09-19T07:09:33;100083.47;;;22.67;77.19
80198;BME280;69517;52.030;7.106;2023-09-19T07:12:01;100080.56;;;22.71;77.41
80198;BME280;69517;52.030;7.106;2023-09-19T07:14:27;100077.84;;;22.72;77.59
80198;BME280;69517;52.030;7.106;2023-09-19T07:16:55;100083.19;;;22.71;76.94
80198;BME280;69517;52.030;7.106;2023-09-19T07:19:21;100088.47;;;22.71;75.58
80198;BME280;69517;52.030;7.106;2023-09-19T07:21:47;100085.00;;;22.70;75.77
80198;BME280;69517;52.030;7.106;2023-09-19T07:24:15;100091.22;;;22.69;75.59
80198;BME280;69517;52.030;7.106;2023-09-19T07:26:41;100087.06;;;22.66;75.57
80198;BME280;69517;52.030;7.106;2023-09-19T07:29:09;100080.84;;;22.67;75.54
80198;BME280;69517;52.030;7.106;2023-09-19T07:31:35;100070.41;;;22.66;75.67
80198;BME280;69517;52.030;7.106;2023-09-19T07:34:02;100079.28;;;22.65;75.94
80198;BME280;69517;52.030;7.106;2023-09-19T07:36:30;100081.69;;;22.68;75.75
80198;BME280;69517;52.030;7.106;2023-09-19T07:38:57;100085.94;;;22.69;76.31
80198;BME280;69517;52.030;7.106;2023-09-19T07:41:25;100085.00;;;22.70;76.43
80198;BME280;69517;52.030;7.106;2023-09-19T07:43:51;100101.06;;;22.67;76.80
80198;BME280;69517;52.030;7.106;2023-09-19T07:46:19;100092.06;;;22.70;77.05
80198;BME280;69517;52.030;7.106;2023-09-19T07:48:46;100100.59;;;22.73;78.17
80198;BME280;69517;52.030;7.106;2023-09-19T07:51:14;100087.50;;;22.72;78.33
80198;BME280;69517;52.030;7.106;2023-09-19T07:53:41;100092.69;;;22.73;77.85
80198;BME280;69517;52.030;7.106;2023-09-19T07:56:08;100093.53;;;22.74;78.58
80198;BME280;69517;52.030;7.106;2023-09-19T07:58:34;100096.00;;;22.75;78.21
80198;BME280;69517;52.030;7.106;2023-09-19T08:01:02;100093.66;;;22.72;78.42
80198;BME280;69517;52.030;7.106;2023-09-19T08:03:30;100104.06;;;22.74;78.43
80198;BME280;69517;52.030;7.106;2023-09-19T08:05:57;100096.28;;;22.72;78.23
80198;BME280;69517;52.030;7.106;2023-09-19T08:08:23;100091.56;;;22.76;78.00
80198;BME280;69517;52.030;7.106;2023-09-19T08:10:52;100104.75;;;22.76;78.38
80198;BME280;69517;52.030;7.106;2023-09-19T08:13:18;100106.56;;;22.75;77.99
80198;BME280;69517;52.030;7.106;2023-09-19T08:15:46;100118.91;;;22.75;77.69
80198;BME280;69517;52.030;7.106;2023-09-19T08:18:13;100101.66;;;22.71;78.49
80198;BME280;69517;52.030;7.106;2023-09-19T08:20:41;100111.81;;;22.75;78.11
80198;BME280;69517;52.030;7.106;2023-09-19T08:23:11;100122.25;;;22.77;77.88
80198;BME280;69517;52.030;7.106;2023-09-19T08:25:37;100116.56;;;22.81;77.95
80198;BME280;69517;52.030;7.106;2023-09-19T08:28:05;100115.50;;;22.84;78.60
80198;BME280;69517;52.030;7.106;2023-09-19T08:30:33;100114.47;;;22.75;78.61
80198;BME280;69517;52.030;7.106;2023-09-19T08:33:00;100120.31;;;22.79;78.19
80198;BME280;69517;52.030;7.106;2023-09-19T08:35:29;100118.53;;;22.79;78.63
80198;BME280;69517;52.030;7.106;2023-09-19T08:37:57;100116.00;;;22.78;78.66
80198;BME280;69517;52.030;7.106;2023-09-19T08:40:25;100120.94;;;22.71;79.18
80198;BME280;69517;52.030;7.106;2023-09-19T08:42:55;100135.81;;;22.72;79.19
80198;BME280;69517;52.030;7.106;2023-09-19T08:45:22;100133.88;;;22.74;79.82
80198;BME280;69517;52.030;7.106;2023-09-19T08:47:50;100129.31;;;22.76;80.17
80198;BME280;69517;52.030;7.106;2023-09-19T08:50:19;100131.47;;;22.71;80.29
80198;BME280;69517;52.030;7.106;2023-09-19T08:52:50;100134.63;;;22.65;80.64
80198;BME280;69517;52.030;7.106;2023-09-19T08:55:20;100133.84;;;22.53;79.45
80198;BME280;69517;52.030;7.106;2023-09-19T08:57:51;100123.25;;;22.44;78.47
80198;BME280;69517;52.030;7.106;2023-09-19T09:00:20;100118.94;;;22.43;79.02
80198;BME280;69517;52.030;7.106;2023-09-19T09:02:47;100126.06;;;22.52;78.68
80198;BME280;69517;52.030;7.106;2023-09-19T09:05:15;100134.72;;;22.63;78.37
80198;BME280;69517;52.030;7.106;2023-09-19T09:07:47;100131.59;;;22.70;78.62
80198;BME280;69517;52.030;7.106;2023-09-19T09:10:15;100123.69;;;22.70;78.68
80198;BME280;69517;52.030;7.106;2023-09-19T09:12:43;100137.38;;;22.75;79.06
80198;BME280;69517;52.030;7.106;2023-09-19T09:15:09;100130.25;;;22.75;79.36
80198;BME280;69517;52.030;7.106;2023-09-19T09:17:41;100123.19;;;22.76;79.67
80198;BME280;69517;52.030;7.106;2023-09-19T09:20:08;100113.25;;;22.79;79.75
80198;BME280;69517;52.030;7.106;2023-09-19T09:22:35;100116.13;;;22.76;80.29
80198;BME280;69517;52.030;7.106;2023-09-19T09:25:05;100117.69;;;22.79;80.49
80198;BME280;69517;52.030;7.106;2023-09-19T09:27:31;100109.91;;;22.77;80.47
80198;BME280;69517;52.030;7.106;2023-09-19T09:30:00;100108.81;;;22.80;80.40
80198;BME280;69517;52.030;7.106;2023-09-19T09:32:27;100110.50;;;22.81;80.76
80198;BME280;69517;52.030;7.106;2023-09-19T09:34:54;100111.69;;;22.77;81.06
80198;BME280;69517;52.030;7.106;2023-09-19T09:37:21;100127.38;;;22.78;81.12
80198;BME280;69517;52.030;7.106;2023-09-19T09:39:51;100116.72;;;22.80;81.30
80198;BME280;69517;52.030;7.106;2023-09-19T09:42:30;100118.53;;;22.79;81.29
80198;BME280;69517;52.030;7.106;2023-09-19T09:45:17;100121.84;;;22.81;81.39
80198;BME280;69517;52.030;7.106;2023-09-19T09:47:53;100118.25;;;22.82;81.30
80198;BME280;69517;52.030;7.106;2023-09-19T09:50:28;100124.22;;;22.84;81.51
80198;BME280;69517;52.030;7.106;2023-09-19T09:53:03;100124.34;;;22.83;81.80
80198;BME280;69517;52.030;7.106;2023-09-19T09:58:16;100115.50;;;22.84;81.77
80198;BME280;69517;52.030;7.106;2023-09-19T10:00:53;100119.91;;;22.83;81.81
80198;BME280;69517;52.030;7.106;2023-09-19T10:03:24;100106.63;;;22.85;82.12
80198;BME280;69517;52.030;7.106;2023-09-19T10:05:57;100103.16;;;22.84;82.09
80198;BME280;69517;52.030;7.106;2023-09-19T10:08:25;100090.94;;;22.83;81.99
80198;BME280;69517;52.030;7.106;2023-09-19T10:10:56;100092.47;;;22.86;81.94
80198;BME280;69517;52.030;7.106;2023-09-19T10:13:30;100085.53;;;22.85;82.35
80198;BME280;69517;52.030;7.106;2023-09-19T10:15:59;100099.44;;;22.87;82.30
80198;BME280;69517;52.030;7.106;2023-09-19T10:18:32;100093.44;;;22.85;82.40
80198;BME280;69517;52.030;7.106;2023-09-19T10:21:04;100078.19;;;22.88;82.35
80198;BME280;69517;52.030;7.106;2023-09-19T10:23:32;100089.69;;;22.87;82.42
80198;BME280;69517;52.030;7.106;2023-09-19T10:26:01;100086.09;;;22.88;82.55
80198;BME280;69517;52.030;7.106;2023-09-19T10:28:27;100093.03;;;22.89;82.74
80198;BME280;69517;52.030;7.106;2023-09-19T10:30:54;100084.31;;;22.89;82.56
80198;BME280;69517;52.030;7.106;2023-09-19T10:33:24;100082.50;;;22.89;82.63
80198;BME280;69517;52.030;7.106;2023-09-19T10:35:51;100084.88;;;22.92;82.56
80198;BME280;69517;52.030;7.106;2023-09-19T10:38:22;100101.53;;;22.93;82.57
80198;BME280;69517;52.030;7.106;2023-09-19T10:40:49;100111.38;;;22.91;82.96
80198;BME280;69517;52.030;7.106;2023-09-19T10:43:17;100092.91;;;22.91;83.03
80198;BME280;69517;52.030;7.106;2023-09-19T10:45:43;100100.81;;;22.91;82.63
80198;BME280;69517;52.030;7.106;2023-09-19T10:48:11;100091.97;;;22.92;82.83
80198;BME280;69517;52.030;7.106;2023-09-19T10:50:43;100095.69;;;22.89;82.84
80198;BME280;69517;52.030;7.106;2023-09-19T10:53:11;100098.06;;;22.92;82.40
80198;BME280;69517;52.030;7.106;2023-09-19T10:55:38;100092.78;;;22.92;82.13
80198;BME280;69517;52.030;7.106;2023-09-19T10:58:05;100087.38;;;22.94;82.13
80198;BME280;69517;52.030;7.106;2023-09-19T11:00:51;100095.16;;;22.95;82.29
80198;BME280;69517;52.030;7.106;2023-09-19T11:03:19;100083.09;;;22.93;82.75
80198;BME280;69517;52.030;7.106;2023-09-19T11:06:05;100092.53;;;22.95;82.45
80198;BME280;69517;52.030;7.106;2023-09-19T11:11:41;100091.56;;;22.96;82.56
80198;BME280;69517;52.030;7.106;2023-09-19T11:14:13;100083.66;;;22.96;82.76
80198;BME280;69517;52.030;7.106;2023-09-19T11:16:41;100075.03;;;22.94;82.81
80198;BME280;69517;52.030;7.106;2023-09-19T11:22:11;100082.56;;;22.99;82.98
80198;BME280;69517;52.030;7.106;2023-09-19T11:24:36;100076.44;;;22.98;82.83
80198;BME280;69517;52.030;7.106;2023-09-19T11:27:10;100071.03;;;23.00;82.98
80198;BME280;69517;52.030;7.106;2023-09-19T11:29:37;100076.19;;;23.01;82.82
80198;BME280;69517;52.030;7.106;2023-09-19T11:32:04;100070.19;;;22.99;82.83
80198;BME280;69517;52.030;7.106;2023-09-19T11:34:37;100079.78;;;23.00;82.88
80198;BME280;69517;52.030;7.106;2023-09-19T11:37:02;100071.19;;;22.98;83.02
80198;BME280;69517;52.030;7.106;2023-09-19T11:39:30;100074.66;;;22.99;82.99
80198;BME280;69517;52.030;7.106;2023-09-19T11:41:58;100072.16;;;22.97;83.14
80198;BME280;69517;52.030;7.106;2023-09-19T11:44:31;100059.94;;;22.96;83.28
80198;BME280;69517;52.030;7.106;2023-09-19T11:46:59;100059.81;;;22.98;83.37
80198;BME280;69517;52.030;7.106;2023-09-19T11:49:28;100067.56;;;22.99;83.18
80198;BME280;69517;52.030;7.106;2023-09-19T11:51:56;100054.38;;;22.99;83.33
80198;BME280;69517;52.030;7.106;2023-09-19T11:54:25;100053.56;;;22.99;83.17
80198;BME280;69517;52.030;7.106;2023-09-19T11:56:58;100067.56;;;22.99;83.19
80198;BME280;69517;52.030;7.106;2023-09-19T11:59:25;100058.00;;;22.98;83.46
80198;BME280;69517;52.030;7.106;2023-09-19T12:01:53;100060.63;;;22.98;83.74
80198;BME280;69517;52.030;7.106;2023-09-19T12:04:31;100054.38;;;22.99;83.27
80198;BME280;69517;52.030;7.106;2023-09-19T12:07:00;100050.66;;;23.02;83.52
80198;BME280;69517;52.030;7.106;2023-09-19T12:09:26;100043.97;;;22.98;83.43
80198;BME280;69517;52.030;7.106;2023-09-19T12:11:53;100034.13;;;23.00;83.84
80198;BME280;69517;52.030;7.106;2023-09-19T12:14:23;100033.44;;;22.98;83.40
80198;BME280;69517;52.030;7.106;2023-09-19T12:16:51;100025.38;;;22.99;83.44
80198;BME280;69517;52.030;7.106;2023-09-19T12:19:20;100023.56;;;23.00;83.76
80198;BME280;69517;52.030;7.106;2023-09-19T12:21:53;100027.88;;;23.01;83.69
80198;BME280;69517;52.030;7.106;2023-09-19T12:24:20;100034.13;;;23.00;83.74
80198;BME280;69517;52.030;7.106;2023-09-19T12:26:46;100041.78;;;23.03;83.49
80198;BME280;69517;52.030;7.106;2023-09-19T12:29:16;100040.63;;;22.96;83.77
80198;BME280;69517;52.030;7.106;2023-09-19T12:31:48;100023.97;;;22.95;83.99
80198;BME280;69517;52.030;7.106;2023-09-19T12:34:16;100032.59;;;22.97;84.03
80198;BME280;69517;52.030;7.106;2023-09-19T12:36:44;100042.88;;;23.00;83.78
80198;BME280;69517;52.030;7.106;2023-09-19T12:39:11;100028.00;;;22.99;84.28
80198;BME280;69517;52.030;7.106;2023-09-19T12:41:38;100033.44;;;22.98;84.38
80198;BME280;69517;52.030;7.106;2023-09-19T12:44:05;100033.44;;;22.98;84.02
80198;BME280;69517;52.030;7.106;2023-09-19T12:46:34;100032.72;;;22.96;84.16
80198;BME280;69517;52.030;7.106;2023-09-19T12:49:17;100026.22;;;23.00;84.02
80198;BME280;69517;52.030;7.106;2023-09-19T12:51:44;100021.78;;;23.00;83.88
80198;BME280;69517;52.030;7.106;2023-09-19T12:54:11;100025.53;;;22.98;84.26
80198;BME280;69517;52.030;7.106;2023-09-19T12:56:40;100025.66;;;22.96;84.28
80198;BME280;69517;52.030;7.106;2023-09-19T12:59:09;100022.91;;;22.98;84.30
80198;BME280;69517;52.030;7.106;2023-09-19T13:01:38;100029.13;;;22.97;84.51
80198;BME280;69517;52.030;7.106;2023-09-19T13:04:14;100015.94;;;22.97;84.66
80198;BME280;69517;52.030;7.106;2023-09-19T13:06:44;100018.59;;;22.97;84.60
80198;BME280;69517;52.030;7.106;2023-09-19T13:09:12;100021.22;;;22.97;84.23